createdAt,value
2023-01-15T00:03:58.000Z,50.2
2023-01-15T00:09:01.261Z,51
2023-01-15T00:14:19.769Z,51.3
2023-01-15T00:19:38.360Z,51.3
2023-01-15T00:24:56.294Z,51.8
2023-01-15T00:30:14.827Z,50.5
2023-01-15T00:35:33.464Z,51.2
2023-01-15T00:40:51.958Z,50.7
2023-01-15T00:46:10.658Z,50.7
2023-01-15T00:51:28.875Z,50.5
2023-01-15T00:56:47.671Z,50.5
2023-01-15T01:02:06.762Z,51.5
2023-01-15T01:07:25.137Z,51.4
2023-01-15T01:12:43.649Z,51.8
2023-01-15T01:18:02.152Z,51.5
2023-01-15T01:23:20.647Z,51.1
2023-01-15T01:28:38.873Z,51.8
2023-01-15T01:33:56.861Z,50.9
2023-01-15T01:39:15.639Z,51.6
2023-01-15T01:44:34.123Z,51.2
2023-01-15T01:49:52.878Z,51.2
2023-01-15T01:55:11.644Z,51
2023-01-15T02:00:30.611Z,50.8
2023-01-15T02:05:49.138Z,51.3
2023-01-15T02:11:07.828Z,51.6
2023-01-15T02:16:26.208Z,52
2023-01-15T02:21:44.488Z,52
2023-01-15T02:27:02.990Z,51.2
2023-01-15T02:32:21.203Z,51.4
2023-01-15T02:37:39.427Z,52.2
2023-01-15T02:42:57.819Z,52.1
2023-01-15T02:48:16.046Z,51.1
2023-01-15T02:53:34.269Z,51.8
2023-01-15T02:58:52.486Z,51.2
2023-01-15T03:04:11.167Z,52.1
2023-01-15T03:09:29.140Z,52
2023-01-15T03:14:47.087Z,52.1
2023-01-15T03:20:05.347Z,51.9
2023-01-15T03:25:24.104Z,51.6
2023-01-15T03:30:42.683Z,52.6
2023-01-15T03:36:01.586Z,51.9
2023-01-15T03:41:20.354Z,52.1
2023-01-15T03:46:39.146Z,52.5
2023-01-15T03:51:57.563Z,52.5
2023-01-15T03:57:15.766Z,53.1
2023-01-15T04:02:34.016Z,52.9
2023-01-15T04:07:52.249Z,53.2
2023-01-15T04:13:10.743Z,53.6
2023-01-15T04:18:29.246Z,53.3
2023-01-15T04:23:47.997Z,53.3
2023-01-15T04:29:05.955Z,52.4
2023-01-15T04:34:24.483Z,52.7
2023-01-15T04:39:42.390Z,52.8
2023-01-15T04:45:00.882Z,52.8
2023-01-15T04:50:19.391Z,52.9
2023-01-15T04:55:37.884Z,52.4
2023-01-15T05:00:55.836Z,52.5
2023-01-15T05:06:14.075Z,52.5
2023-01-15T05:11:32.840Z,52.3
2023-01-15T05:16:51.319Z,52.4
2023-01-15T05:22:10.033Z,52.4
2023-01-15T05:27:28.228Z,51.7
2023-01-15T05:32:46.665Z,51.8
2023-01-15T05:38:05.157Z,51.8
2023-01-15T05:43:23.372Z,51.8
2023-01-15T05:48:41.306Z,52.4
2023-01-15T05:53:59.828Z,51.9
2023-01-15T05:59:18.337Z,52.2
2023-01-15T06:04:37.106Z,52.1
2023-01-15T06:09:55.936Z,52.5
2023-01-15T06:15:14.467Z,52.5
2023-01-15T06:20:32.916Z,51.8
2023-01-15T06:25:51.711Z,51.6
2023-01-15T06:31:10.566Z,52.5
2023-01-15T06:36:29.130Z,51.8
2023-01-15T06:41:47.334Z,52.4
2023-01-15T06:47:06.093Z,51.6
2023-01-15T06:52:24.946Z,52.6
2023-01-15T06:57:43.432Z,51.9
2023-01-15T07:03:04.225Z,53
2023-01-15T07:08:22.724Z,51.7
2023-01-15T07:13:40.649Z,52.1
2023-01-15T07:18:59.212Z,52.3
2023-01-15T07:24:17.706Z,52.2
2023-01-15T07:29:36.493Z,51.8
2023-01-15T07:34:54.388Z,52
2023-01-15T07:40:12.861Z,52.2
2023-01-15T07:45:31.515Z,52.4
2023-01-15T07:50:49.445Z,52.3
2023-01-15T07:56:13.487Z,52
2023-01-15T08:01:33.503Z,52.1
2023-01-15T08:06:51.781Z,52.2
2023-01-15T08:12:09.981Z,52.2
2023-01-15T08:17:28.787Z,51.6
2023-01-15T08:22:47.538Z,51.4
2023-01-15T08:27:50.694Z,52.3
2023-01-15T08:33:09.519Z,51.8
2023-01-15T08:38:28.033Z,51.3
2023-01-15T08:43:46.902Z,50.9
2023-01-15T08:49:07.179Z,51
2023-01-15T08:54:26.199Z,51.3
2023-01-15T08:59:45.253Z,52
2023-01-15T09:04:48.103Z,51.2
2023-01-15T09:10:06.325Z,49.6
2023-01-15T09:15:24.926Z,49.5
2023-01-15T09:20:42.829Z,49.9
2023-01-15T09:25:53.680Z,49.8
2023-01-15T09:31:12.019Z,50.1
2023-01-15T09:36:30.805Z,51
2023-01-15T09:41:49.545Z,49.9
2023-01-15T09:47:08.171Z,49.5
2023-01-15T09:52:27.000Z,50.8
2023-01-15T09:57:45.706Z,47.6
2023-01-15T10:03:04.431Z,48.7
2023-01-15T10:08:22.921Z,48.9
2023-01-15T10:13:46.718Z,45.4
2023-01-15T10:19:05.550Z,47.9
2023-01-15T10:24:24.332Z,48.9
2023-01-15T10:29:42.866Z,48.1
2023-01-15T10:35:01.640Z,49.4
2023-01-15T10:40:20.674Z,49.7
2023-01-15T10:45:38.646Z,49.6
2023-01-15T10:50:57.112Z,49.6
2023-01-15T10:56:15.388Z,49.3
2023-01-15T11:01:34.233Z,48.7
2023-01-15T11:06:52.729Z,48.7
2023-01-15T11:12:11.307Z,49.3
2023-01-15T11:17:13.878Z,48.9
2023-01-15T11:22:32.660Z,49.5
2023-01-15T11:27:51.155Z,49.4
2023-01-15T11:33:12.582Z,48.8
2023-01-15T11:38:31.233Z,48.8
2023-01-15T11:43:49.250Z,49.2
2023-01-15T11:49:07.404Z,49.1
2023-01-15T11:54:25.605Z,48.4
2023-01-15T11:59:44.613Z,48.2
2023-01-15T12:05:03.455Z,48
2023-01-15T12:10:21.450Z,48.7
2023-01-15T12:15:39.908Z,48.2
2023-01-15T12:20:58.429Z,41.9
2023-01-15T12:26:17.324Z,40.4
2023-01-15T12:31:35.723Z,43.8
2023-01-15T12:36:53.919Z,45.3
2023-01-15T12:42:12.391Z,46
2023-01-15T12:47:30.924Z,47
2023-01-15T12:52:49.396Z,47.9
2023-01-15T12:58:07.891Z,48.3
2023-01-15T13:03:26.675Z,47.9
2023-01-15T13:08:44.911Z,47.9
2023-01-15T13:14:03.454Z,48.2
2023-01-15T13:19:21.648Z,48.5
2023-01-15T13:24:40.279Z,48.5
2023-01-15T13:29:58.568Z,48.3
2023-01-15T13:35:17.026Z,49
2023-01-15T13:40:35.699Z,49.5
2023-01-15T13:45:54.038Z,49.6
2023-01-15T13:51:12.807Z,49.7
2023-01-15T13:56:32.148Z,49.3
2023-01-15T14:01:51.439Z,49.3
2023-01-15T14:07:09.753Z,50
2023-01-15T14:12:27.913Z,49.6
2023-01-15T14:17:46.100Z,50.2
2023-01-15T14:23:04.317Z,50.9
2023-01-15T14:28:23.055Z,50.5
2023-01-15T14:33:41.853Z,50.5
2023-01-15T14:39:00.640Z,50.1
2023-01-15T14:44:19.168Z,50.8
2023-01-15T14:49:37.638Z,51.3
2023-01-15T14:54:56.097Z,51.7
2023-01-15T15:00:15.009Z,51.7
2023-01-15T15:05:33.249Z,51.5
2023-01-15T15:10:51.788Z,51.6
2023-01-15T15:16:10.314Z,52
2023-01-15T15:21:32.705Z,52.5
2023-01-15T15:26:50.912Z,51.6
2023-01-15T15:32:09.393Z,52.5
2023-01-15T15:37:28.211Z,51.9
2023-01-15T15:42:46.127Z,52.5
2023-01-15T15:48:04.458Z,51.8
2023-01-15T15:53:23.505Z,52.2
2023-01-15T15:58:41.989Z,52.8
2023-01-15T16:04:00.344Z,53.2
2023-01-15T16:09:19.123Z,53.4
2023-01-15T16:14:37.883Z,53.3
2023-01-15T16:19:56.655Z,53.5
2023-01-15T16:25:15.147Z,53.5
2023-01-15T16:30:33.629Z,52.7
2023-01-15T16:35:51.818Z,52.8
2023-01-15T16:41:10.357Z,53.8
2023-01-15T16:46:28.786Z,53.1
2023-01-15T16:51:47.246Z,54.1
2023-01-15T16:57:05.451Z,54.7
2023-01-15T17:02:24.335Z,56
2023-01-15T17:07:42.894Z,55.2
2023-01-15T17:13:01.405Z,55.5
2023-01-15T17:18:19.492Z,54.8
2023-01-15T17:23:38.484Z,54.5
2023-01-15T17:28:57.226Z,55.1
2023-01-15T17:34:16.020Z,54.2
2023-01-15T17:39:34.757Z,54.6
2023-01-15T17:44:53.297Z,55.9
2023-01-15T17:50:11.790Z,54.9
2023-01-15T17:55:29.721Z,55.1
2023-01-15T18:00:48.951Z,54.6
2023-01-15T18:06:07.683Z,54.7
2023-01-15T18:11:26.411Z,54.8
2023-01-15T18:16:44.887Z,54.1
2023-01-15T18:22:03.446Z,53.4
2023-01-15T18:27:21.616Z,53.5
2023-01-15T18:32:39.803Z,52.2
2023-01-15T18:37:58.430Z,53.6
2023-01-15T18:43:16.619Z,52.7
2023-01-15T18:48:35.093Z,53.6
2023-01-15T18:53:53.542Z,53.6
2023-01-15T18:59:12.095Z,53.7
2023-01-15T19:04:30.890Z,53.7
2023-01-15T19:09:49.416Z,52.9
2023-01-15T19:15:08.086Z,52.9
2023-01-15T19:20:27.196Z,53.7
2023-01-15T19:25:45.768Z,53.7
2023-01-15T19:31:04.918Z,52.7
2023-01-15T19:36:23.189Z,53.6
2023-01-15T19:41:41.670Z,53.3
2023-01-15T19:47:00.340Z,53
2023-01-15T19:52:19.129Z,52.9
2023-01-15T20:03:01.568Z,53.4
2023-01-15T20:08:19.894Z,52.7
2023-01-15T20:13:39.324Z,53.1
2023-01-15T20:18:58.471Z,52.8
2023-01-15T20:24:17.293Z,53.5
2023-01-15T20:29:36.069Z,52.9
2023-01-15T20:34:54.284Z,53.5
2023-01-15T20:40:13.161Z,53.4
2023-01-15T20:45:32.202Z,52.7
2023-01-15T20:50:50.764Z,52.9
2023-01-15T20:56:09.465Z,53.4
2023-01-15T21:01:28.192Z,52.7
2023-01-15T21:06:46.744Z,52.6
2023-01-15T21:12:04.685Z,52.7
2023-01-15T21:17:23.453Z,53.2
2023-01-15T21:22:41.941Z,52.6
2023-01-15T21:28:00.439Z,52.5
2023-01-15T21:33:18.906Z,53.4
2023-01-15T21:38:37.182Z,53.4
2023-01-15T21:43:55.990Z,52.5
2023-01-15T21:49:14.512Z,52.7
2023-01-15T21:54:33.264Z,53.4
2023-01-15T21:59:51.512Z,52.4
2023-01-15T22:05:10.315Z,53.5
2023-01-15T22:10:28.860Z,53
2023-01-15T22:15:47.344Z,52.7
2023-01-15T22:21:05.854Z,52.6
2023-01-15T22:26:24.037Z,53.4
2023-01-15T22:31:42.560Z,53.5
2023-01-15T22:37:01.036Z,53.5
2023-01-15T22:42:19.252Z,52.7
2023-01-15T22:47:37.440Z,52.9
2023-01-15T22:52:55.926Z,53.6
2023-01-15T22:58:14.147Z,53.3
2023-01-15T23:03:32.908Z,53.2
2023-01-15T23:08:51.393Z,52.9
2023-01-15T23:14:10.114Z,53.2
2023-01-15T23:19:28.640Z,53.7
2023-01-15T23:24:47.135Z,53.4
2023-01-15T23:30:05.682Z,53.1
2023-01-15T23:35:24.253Z,53.5
2023-01-15T23:40:42.746Z,53.4
2023-01-15T23:46:01.353Z,53.6
2023-01-15T23:51:19.859Z,53.5
2023-01-15T23:56:38.083Z,52.6
